Sultan Atasoy — TCYG9 — position and weather

sailwx.info

Track history (hours):
 
Tides and Currents Weather Stations Pressure Air Temp Water Temp Dewpoint Dewpoint Depression Visibility Wind Speed Wind Dir Waves Ship Positions

Sultan Atasoy

Last reported at 2014-Nov-25 11:19 UTC. Time now 2014-Nov-26 01:35 UTC.
Position N 40°45' E 029°36'.

Length 109 m; draft 7.3 m.

Type: Ship. MMSI: 271040963.

Date/timePositionNaut miles runAvg speedWind from/ knotsBaromVisibWave heightAir tempDewpointWater temp
2014-Nov-25 11:19N 40°45' E 029°36'6 8.3
2014-Nov-25 10:33N 40°45' E 029°27'7 7.4
2014-Nov-25 09:33N 40°43' E 029°18'1 1.2
2014-Nov-25 08:33N 40°43' E 029°16'1 0.7
2014-Nov-25 07:33N 40°44' E 029°17'1 0.7
2014-Nov-25 06:33N 40°44' E 029°18'5 5.0
2014-Nov-25 05:33N 40°46' E 029°12'1010.1
2014-Nov-25 04:33N 40°51' E 028°60'10 9.5
2014-Nov-25 03:28N 41°01' E 028°60'25 4.7
2014-Nov-24 22:04N 41°23' E 029°17'6 7.4
2014-Nov-24 21:16N 41°23' E 029°25'6 8.4
2014-Nov-24 20:33N 41°24' E 029°32'  
2014-Nov-18 12:33N 41°24' E 029°38'1211.8
2014-Nov-18 11:33N 41°19' E 029°23'  
Track history (hours):
 
Tides and Currents Weather Stations Pressure Air Temp Water Temp Dewpoint Dewpoint Depression Visibility Wind Speed Wind Dir Waves Ship Positions

Sultan Atasoy

Last reported at 2014-Nov-25 11:19 UTC. Time now 2014-Nov-26 01:35 UTC.
Position N 40°45' E 029°36'.

Length 109 m; draft 7.3 m.

Type: Ship. MMSI: 271040963.

Date/timePositionNaut miles runAvg speedWind from/ knotsBaromVisibWave heightAir tempDewpointWater temp
2014-Nov-25 11:19N 40°45' E 029°36'6 8.3
2014-Nov-25 10:33N 40°45' E 029°27'7 7.4
2014-Nov-25 09:33N 40°43' E 029°18'1 1.2
2014-Nov-25 08:33N 40°43' E 029°16'1 0.7
2014-Nov-25 07:33N 40°44' E 029°17'1 0.7
2014-Nov-25 06:33N 40°44' E 029°18'5 5.0
2014-Nov-25 05:33N 40°46' E 029°12'1010.1
2014-Nov-25 04:33N 40°51' E 028°60'10 9.5
2014-Nov-25 03:28N 41°01' E 028°60'25 4.7
2014-Nov-24 22:04N 41°23' E 029°17'6 7.4
2014-Nov-24 21:16N 41°23' E 029°25'6 8.4
2014-Nov-24 20:33N 41°24' E 029°32'  
2014-Nov-18 12:33N 41°24' E 029°38'1211.8
2014-Nov-18 11:33N 41°19' E 029°23'  

Dump ship's entire track history